< < Back
Terminal Aerodrome Forecast


Current Version              Previous Versions:   1  2  3  4  5  6  7  8  9  

Terminal Aerodrome Forecast

476
FTUS42 KGSP 261834 AAA
TAFAND
TAF AMD
KAND 261834Z 2619/2718 24008KT P6SM SCT030
     FM270500 22006KT P6SM BKN050
     FM271400 27012KT P6SM SCT060=

Latest METAR

935
SAUS70 KWBC 270400 RRC
MTRAND
METAR KAND 270356Z AUTO 23006KT 10SM SCT085 BKN110 08/M02 A3006 RMK AO2
SLP179 T00781022


USA.gov is the U.S. government's official web portal to all federal, state and local government web resources and services.